This is the latest recevied weather packets stored in our database for station/object KB9PVH-3. If no packets are shown the sender has not sent any weather packets the latest 10 day(s).
| Time | Temp. | Humidity | Pressure | Rain* | Wind** | Luminosity | Snow |
|---|---|---|---|---|---|---|---|
| 1777586490 | 8.89° C | 67% | 1015.9 hPa | 0 mm | - | - | - |
| 1777585438 | 10° C | 56% | 1015.5 hPa | 0 mm | - | - | - |
| 1777584387 | 10.56° C | 52% | 1015.7 hPa | 0 mm | - | - | - |
| 1777583336 | 10.56° C | 53% | 1015.8 hPa | 0 mm | - | - | - |
| 1777582286 | 10.56° C | 53% | 1015.9 hPa | 0 mm | - | - | - |
| 1777581236 | 10° C | 53% | 1016.5 hPa | 0 mm | - | - | - |
| 1777580186 | 10° C | 53% | 1016.4 hPa | 0 mm | - | - | - |
| 1777579138 | 10.56° C | 52% | 1016.5 hPa | 0 mm | - | - | - |
| 1777578089 | 10.56° C | 54% | 1016.7 hPa | 0 mm | - | - | - |
| 1777577038 | 10.56° C | 53% | 1016.8 hPa | 0 mm | - | - | - |
| 1777575988 | 10.56° C | 51% | 1016.9 hPa | 0 mm | - | - | - |
| 1777574937 | 10° C | 49% | 1016.9 hPa | 0 mm | - | - | - |
| 1777571786 | 10° C | 50% | 1017.4 hPa | 0 mm | - | - | - |
| 1777569687 | 10° C | 49% | 1017.8 hPa | 0 mm | - | - | - |
| 1777568636 | 10° C | 51% | 1018 hPa | 0 mm | - | - | - |
| 1777567590 | 10° C | 48% | 1018 hPa | 0 mm | - | - | - |
| 1777566540 | 9.44° C | 52% | 1018.3 hPa | 0 mm | - | - | - |
| 1777565486 | 9.44° C | 52% | 1018.2 hPa | 0 mm | - | - | - |
| 1777564436 | 8.33° C | 64% | 1018.3 hPa | 0 mm | - | - | - |
| 1777563387 | 8.89° C | 58% | 1018.5 hPa | 0 mm | - | - | - |
| 1777562339 | 8.89° C | 60% | 1018.2 hPa | 0 mm | - | - | - |
| 1777561290 | 8.33° C | 51% | 1018.2 hPa | 0 mm | - | - | - |
| 1777560236 | 7.78° C | 56% | 1018.4 hPa | 0 mm | - | - | - |
| 1777559190 | 7.78° C | 57% | 1018.7 hPa | 0 mm | - | - | - |
| 1777558137 | 7.22° C | 74% | 1018.7 hPa | 0 mm | - | - | - |
* Rain latest hour (hover to see other rain measurements)
** Current wind speed in m/s (hover to see current wind gust speed)